createdAt,value
2019-04-05T00:01:09.815Z,108.20
2019-04-05T00:03:38.991Z,103.87
2019-04-05T00:06:07.908Z,106.00
2019-04-05T00:08:36.819Z,98.30
2019-04-05T00:11:06.766Z,97.67
2019-04-05T00:13:35.631Z,105.80
2019-04-05T00:16:04.374Z,108.03
2019-04-05T00:18:33.211Z,107.40
2019-04-05T00:21:02.372Z,64.73
2019-04-05T00:23:31.175Z,94.10
2019-04-05T00:25:59.977Z,103.47
2019-04-05T00:28:28.772Z,103.43
2019-04-05T00:30:57.578Z,102.30
2019-04-05T00:33:26.394Z,96.43
2019-04-05T00:35:55.113Z,109.47
2019-04-05T00:38:23.928Z,110.83
2019-04-05T00:40:52.713Z,114.53
2019-04-05T00:43:21.568Z,103.50
2019-04-05T00:45:51.309Z,103.57
2019-04-05T00:48:20.191Z,114.87
2019-04-05T00:50:48.952Z,116.00
2019-04-05T00:53:18.149Z,104.40
2019-04-05T00:55:47.904Z,113.30
2019-04-05T00:58:16.745Z,107.70
2019-04-05T01:00:45.586Z,107.53
2019-04-05T01:03:14.457Z,103.40
2019-04-05T01:05:43.879Z,114.93
2019-04-05T01:08:13.692Z,105.07
2019-04-05T01:10:42.424Z,114.00
2019-04-05T01:13:11.437Z,98.90
2019-04-05T01:15:41.369Z,105.87
2019-04-05T01:18:10.330Z,110.00
2019-04-05T01:20:40.744Z,103.17
2019-04-05T01:23:10.575Z,90.60
2019-04-05T01:25:39.701Z,106.67
2019-04-05T01:28:08.527Z,103.40
2019-04-05T01:30:37.412Z,111.30
2019-04-05T01:33:06.150Z,108.43
2019-04-05T01:35:35.034Z,103.27
2019-04-05T01:38:03.869Z,108.50
2019-04-05T01:40:34.397Z,106.03
2019-04-05T01:43:03.242Z,96.67
2019-04-05T01:45:32.547Z,104.57
2019-04-05T01:48:01.381Z,96.83
2019-04-05T01:50:30.304Z,102.00
2019-04-05T01:52:59.324Z,95.03
2019-04-05T01:55:28.257Z,94.90
2019-04-05T01:57:57.439Z,100.07
2019-04-05T02:00:26.768Z,96.37
2019-04-05T02:02:56.337Z,90.10
2019-04-05T02:05:25.179Z,94.43
2019-04-05T02:07:54.453Z,90.00
2019-04-05T02:10:23.433Z,94.03
2019-04-05T02:12:52.176Z,98.63
2019-04-05T02:15:26.251Z,94.73
2019-04-05T02:17:55.211Z,99.13
2019-04-05T02:20:24.164Z,94.17
2019-04-05T02:22:52.972Z,87.07
2019-04-05T02:25:21.711Z,90.20
2019-04-05T02:27:51.033Z,100.77
2019-04-05T02:30:20.095Z,94.53
2019-04-05T02:32:49.193Z,100.40
2019-04-05T02:35:17.982Z,107.40
2019-04-05T02:37:46.894Z,97.87
2019-04-05T02:40:16.500Z,98.80
2019-04-05T02:42:47.553Z,98.43
2019-04-05T02:45:16.649Z,97.57
2019-04-05T02:47:51.514Z,96.17
2019-04-05T02:50:19.324Z,99.87
2019-04-05T02:52:49.451Z,94.53
2019-04-05T02:55:18.326Z,106.67
2019-04-05T02:57:47.640Z,96.47
2019-04-05T03:00:16.377Z,94.93
2019-04-05T03:02:45.809Z,103.50
2019-04-05T03:05:14.583Z,110.17
2019-04-05T03:07:43.441Z,104.23
2019-04-05T03:10:16.047Z,105.67
2019-04-05T03:12:44.786Z,108.33
2019-04-05T03:15:14.099Z,115.13
2019-04-05T03:17:42.875Z,109.77
2019-04-05T03:20:11.714Z,93.20
2019-04-05T03:22:40.637Z,117.20
2019-04-05T03:25:09.998Z,120.73
2019-04-05T03:27:39.366Z,122.17
2019-04-05T03:30:08.399Z,127.63
2019-04-05T03:32:37.162Z,136.23
2019-04-05T03:35:06.114Z,133.37
2019-04-05T03:37:34.857Z,156.80
2019-04-05T03:40:03.829Z,151.53
2019-04-05T03:42:32.655Z,156.50
2019-04-05T03:45:01.587Z,146.60
2019-04-05T03:47:30.681Z,183.83
2019-04-05T03:49:59.689Z,184.53
2019-04-05T03:52:28.943Z,159.13
2019-04-05T03:54:58.333Z,183.23
2019-04-05T03:57:27.149Z,199.10
2019-04-05T03:59:58.921Z,210.63
2019-04-05T04:02:27.761Z,170.07
2019-04-05T04:04:56.535Z,203.23
2019-04-05T04:07:25.371Z,195.30
2019-04-05T04:09:54.175Z,179.13
2019-04-05T04:12:23.070Z,212.50
2019-04-05T04:14:52.273Z,187.43
2019-04-05T04:17:21.878Z,209.47
2019-04-05T04:19:51.100Z,227.37
2019-04-05T04:22:22.338Z,200.20
2019-04-05T04:24:51.429Z,190.57
2019-04-05T04:27:20.602Z,220.80
2019-04-05T04:29:49.354Z,169.97
2019-04-05T04:32:18.569Z,254.67
2019-04-05T04:34:47.315Z,249.70
2019-04-05T04:37:16.278Z,281.57
2019-04-05T04:39:45.406Z,330.73
2019-04-05T04:42:14.701Z,247.37
2019-04-05T04:44:43.510Z,257.90
2019-04-05T04:47:25.470Z,285.73
2019-04-05T04:49:43.061Z,275.77
2019-04-05T04:52:12.662Z,319.23
2019-04-05T04:54:41.998Z,169.43
2019-04-05T04:57:10.821Z,366.77
2019-04-05T04:59:39.593Z,319.17
2019-04-05T05:02:08.880Z,304.13
2019-04-05T05:04:39.250Z,348.80
2019-04-05T05:07:08.199Z,382.83
2019-04-05T05:09:36.931Z,320.97
2019-04-05T05:12:05.930Z,362.87
2019-04-05T05:14:34.781Z,298.07
2019-04-05T05:17:04.882Z,331.00
2019-04-05T05:19:34.604Z,323.23
2019-04-05T05:22:03.421Z,206.30
2019-04-05T05:24:32.855Z,368.23
2019-04-05T05:27:03.157Z,349.10
2019-04-05T05:29:31.985Z,283.17
2019-04-05T05:32:01.019Z,378.87
2019-04-05T05:34:29.852Z,255.33
2019-04-05T05:36:58.702Z,382.90
2019-04-05T05:39:27.520Z,358.47
2019-04-05T05:41:56.789Z,327.50
2019-04-05T05:44:25.678Z,414.40
2019-04-05T05:46:54.483Z,326.40
2019-04-05T05:49:24.368Z,276.53
2019-04-05T05:51:53.814Z,385.13
2019-04-05T05:54:23.290Z,355.23
2019-04-05T05:56:52.112Z,397.00
2019-04-05T05:59:24.667Z,425.60
2019-04-05T06:01:53.807Z,368.53
2019-04-05T06:04:22.840Z,366.80
2019-04-05T06:06:52.648Z,412.53
2019-04-05T06:09:21.653Z,365.03
2019-04-05T06:11:50.392Z,377.23
2019-04-05T06:14:19.521Z,387.77
2019-04-05T06:16:48.671Z,442.40
2019-04-05T06:19:17.661Z,382.17
2019-04-05T06:21:46.825Z,376.47
2019-04-05T06:24:15.693Z,344.73
2019-04-05T06:26:45.261Z,409.03
2019-04-05T06:29:14.085Z,387.30
2019-04-05T06:31:42.828Z,385.03
2019-04-05T06:34:11.828Z,369.23
2019-04-05T06:36:40.664Z,348.73
2019-04-05T06:39:09.438Z,281.73
2019-04-05T06:41:38.261Z,379.47
2019-04-05T06:44:07.077Z,379.67
2019-04-05T06:46:35.984Z,286.17
2019-04-05T06:49:04.722Z,277.00
2019-04-05T06:51:33.548Z,304.77
2019-04-05T06:54:03.474Z,296.27
2019-04-05T06:56:32.409Z,364.73
2019-04-05T06:59:01.763Z,302.70
2019-04-05T07:01:31.433Z,232.03
2019-04-05T07:04:00.213Z,302.83
2019-04-05T07:06:29.131Z,315.03
2019-04-05T07:08:57.893Z,266.23
2019-04-05T07:11:30.086Z,282.10
2019-04-05T07:14:02.330Z,189.93
2019-04-05T07:16:32.447Z,270.90
2019-04-05T07:19:01.192Z,258.97
2019-04-05T07:21:30.010Z,270.20
2019-04-05T07:24:01.769Z,311.40
2019-04-05T07:26:31.354Z,284.53
2019-04-05T07:29:01.924Z,271.37
2019-04-05T07:31:34.879Z,265.47
2019-04-05T07:34:03.792Z,243.70
2019-04-05T07:36:32.659Z,255.00
2019-04-05T07:39:01.472Z,247.27
2019-04-05T07:41:32.069Z,205.03
2019-04-05T07:44:01.198Z,231.93
2019-04-05T07:46:31.370Z,248.00
2019-04-05T07:49:01.210Z,221.00
2019-04-05T07:51:37.925Z,202.73
2019-04-05T07:54:07.104Z,187.87
2019-04-05T07:56:37.246Z,172.90
2019-04-05T07:59:06.969Z,175.97
2019-04-05T08:01:37.029Z,174.83
2019-04-05T08:04:06.554Z,188.77
2019-04-05T08:06:38.509Z,188.77
2019-04-05T08:09:09.448Z,176.37
2019-04-05T08:11:39.719Z,162.87
2019-04-05T08:14:09.076Z,153.33
2019-04-05T08:16:42.816Z,161.97
2019-04-05T08:19:14.495Z,159.30
2019-04-05T08:21:43.441Z,163.13
2019-04-05T08:24:12.209Z,178.40
2019-04-05T08:26:41.704Z,183.77
2019-04-05T08:29:10.532Z,164.03
2019-04-05T08:31:39.390Z,191.50
2019-04-05T08:34:08.003Z,165.20
2019-04-05T08:36:36.750Z,157.17
2019-04-05T08:39:07.282Z,162.63
2019-04-05T08:41:44.018Z,149.67
2019-04-05T08:44:13.279Z,155.73
2019-04-05T08:46:48.240Z,141.27
2019-04-05T08:49:16.920Z,142.80
2019-04-05T08:51:45.571Z,140.13
2019-04-05T08:54:14.166Z,118.00
2019-04-05T08:56:42.669Z,126.03
2019-04-05T08:59:11.307Z,143.03
2019-04-05T09:01:43.259Z,157.37
2019-04-05T09:04:12.002Z,142.60
2019-04-05T09:06:40.728Z,151.77
2019-04-05T09:09:09.341Z,146.43
2019-04-05T09:11:38.361Z,144.80
2019-04-05T09:14:07.155Z,132.47
2019-04-05T09:16:36.009Z,135.23
2019-04-05T09:19:04.621Z,139.07
2019-04-05T09:21:33.635Z,133.20
2019-04-05T09:24:02.180Z,137.50
2019-04-05T09:26:30.753Z,113.50
2019-04-05T09:28:59.366Z,118.87
2019-04-05T09:31:28.569Z,115.97
2019-04-05T09:33:58.175Z,110.43
2019-04-05T09:36:29.263Z,120.07
2019-04-05T09:38:58.109Z,112.70
2019-04-05T09:41:30.859Z,107.63
2019-04-05T09:44:00.156Z,115.77
2019-04-05T09:46:29.941Z,109.60
2019-04-05T09:48:59.855Z,127.17
2019-04-05T09:51:30.327Z,118.97
2019-04-05T09:53:59.836Z,135.10
2019-04-05T09:56:32.979Z,136.00
2019-04-05T09:59:03.431Z,134.77
2019-04-05T10:01:32.671Z,144.23
2019-04-05T10:04:04.395Z,123.83
2019-04-05T10:06:34.110Z,139.47
2019-04-05T10:09:04.952Z,134.20
2019-04-05T10:11:33.793Z,133.40
2019-04-05T10:14:02.631Z,122.27
2019-04-05T10:16:37.727Z,128.77
2019-04-05T10:19:06.872Z,119.07
2019-04-05T10:21:35.942Z,114.53
2019-04-05T10:24:04.917Z,120.13
2019-04-05T10:26:36.354Z,117.03
2019-04-05T10:29:05.301Z,130.90
2019-04-05T10:31:35.256Z,132.23
2019-04-05T10:34:05.306Z,131.57
2019-04-05T10:36:34.526Z,125.27
2019-04-05T10:39:07.177Z,125.93
2019-04-05T10:41:37.442Z,128.73
2019-04-05T10:44:07.545Z,119.80
2019-04-05T10:46:36.933Z,123.67
2019-04-05T10:49:06.300Z,112.03
2019-04-05T10:51:35.774Z,108.77
2019-04-05T10:54:05.136Z,105.70
2019-04-05T10:56:34.006Z,113.00
2019-04-05T10:59:04.544Z,104.00
2019-04-05T11:01:33.688Z,100.67
2019-04-05T11:04:02.417Z,100.33
2019-04-05T11:06:32.923Z,103.30
2019-04-05T11:09:02.000Z,101.60
2019-04-05T11:11:30.736Z,94.67
2019-04-05T11:13:59.652Z,105.20
2019-04-05T11:16:29.961Z,99.33
2019-04-05T11:19:01.889Z,97.90
2019-04-05T11:21:30.838Z,101.17
2019-04-05T11:24:03.164Z,98.20
2019-04-05T11:26:32.523Z,97.80
2019-04-05T11:29:02.260Z,102.90
2019-04-05T11:31:31.619Z,100.13
2019-04-05T11:34:00.459Z,103.57
2019-04-05T11:36:29.341Z,106.23
2019-04-05T11:38:59.962Z,101.53
2019-04-05T11:41:29.513Z,107.47
2019-04-05T11:44:00.658Z,88.50
2019-04-05T11:46:30.621Z,86.27
2019-04-05T11:49:01.368Z,92.03
2019-04-05T11:51:30.074Z,93.23
2019-04-05T11:53:59.106Z,87.80
2019-04-05T11:56:28.707Z,82.87
2019-04-05T11:58:57.622Z,90.87
2019-04-05T12:01:31.733Z,89.67
2019-04-05T12:04:00.737Z,92.83
2019-04-05T12:06:35.157Z,100.23
2019-04-05T12:09:09.185Z,75.93
2019-04-05T12:11:37.952Z,89.23
2019-04-05T12:14:07.364Z,91.23
2019-04-05T12:16:36.593Z,90.00
2019-04-05T12:19:05.582Z,85.27
2019-04-05T12:21:34.786Z,87.77
2019-04-05T12:24:06.189Z,85.13
2019-04-05T12:26:35.381Z,88.83
2019-04-05T12:29:04.397Z,89.57
2019-04-05T12:31:33.122Z,78.73
2019-04-05T12:34:01.935Z,87.13
2019-04-05T12:36:31.148Z,83.83
2019-04-05T12:39:03.458Z,82.67
2019-04-05T12:41:30.463Z,79.43
2019-04-05T12:43:59.805Z,76.60
2019-04-05T12:46:29.434Z,74.10
2019-04-05T12:48:58.193Z,74.47
2019-04-05T12:51:30.260Z,76.27
2019-04-05T12:53:59.100Z,72.87
2019-04-05T12:56:27.829Z,81.57
2019-04-05T12:58:56.746Z,78.40
2019-04-05T13:01:26.958Z,74.63
2019-04-05T13:03:58.693Z,72.70
2019-04-05T13:06:29.895Z,80.97
2019-04-05T13:08:58.732Z,73.50
2019-04-05T13:11:27.604Z,81.90
2019-04-05T13:13:56.993Z,77.40
2019-04-05T13:16:26.459Z,80.07
2019-04-05T13:18:55.592Z,74.77
2019-04-05T13:21:27.742Z,77.93
2019-04-05T13:23:56.808Z,77.17
2019-04-05T13:26:26.700Z,78.27
2019-04-05T13:28:56.024Z,76.60
2019-04-05T13:31:25.435Z,77.07
2019-04-05T13:33:55.264Z,74.73
2019-04-05T13:36:26.726Z,69.83
2019-04-05T13:38:59.588Z,71.93
2019-04-05T13:41:31.394Z,72.23
2019-04-05T13:44:01.357Z,69.53
2019-04-05T13:46:29.881Z,70.43
2019-04-05T13:48:58.783Z,75.67
2019-04-05T13:51:32.246Z,44.53
2019-04-05T13:54:08.550Z,70.37
2019-04-05T13:56:39.542Z,72.63
2019-04-05T13:59:08.792Z,72.30
2019-04-05T14:01:38.089Z,77.53
2019-04-05T14:04:06.910Z,74.97
2019-04-05T14:06:35.700Z,74.17
2019-04-05T14:09:10.257Z,68.83
2019-04-05T14:11:39.466Z,70.63
2019-04-05T14:14:11.827Z,78.07
2019-04-05T14:16:42.591Z,69.83
2019-04-05T14:19:09.877Z,67.23
2019-04-05T14:21:41.188Z,73.67
2019-04-05T14:24:09.464Z,71.27
2019-04-05T14:26:38.400Z,78.57
2019-04-05T14:29:07.203Z,67.93
2019-04-05T14:31:36.042Z,72.30
2019-04-05T14:34:04.905Z,73.93
2019-04-05T14:36:34.227Z,72.97
2019-04-05T14:39:03.647Z,78.50
2019-04-05T14:41:32.466Z,67.90
2019-04-05T14:44:01.306Z,76.73
2019-04-05T14:46:31.476Z,84.07
2019-04-05T14:49:01.217Z,76.57
2019-04-05T14:51:30.059Z,79.30
2019-04-05T14:53:59.592Z,80.30
2019-04-05T14:56:29.661Z,71.03
2019-04-05T14:58:58.658Z,71.83
2019-04-05T15:01:28.652Z,76.00
2019-04-05T15:03:57.383Z,77.73
2019-04-05T15:06:28.255Z,76.20
2019-04-05T15:08:57.560Z,71.70
2019-04-05T15:11:28.585Z,85.87
2019-04-05T15:13:56.824Z,84.07
2019-04-05T15:16:25.564Z,79.13
2019-04-05T15:18:54.752Z,86.20
2019-04-05T15:21:25.423Z,72.83
2019-04-05T15:23:54.132Z,80.13
2019-04-05T15:26:23.064Z,82.43
2019-04-05T15:28:54.748Z,83.87
2019-04-05T15:31:25.820Z,83.80
2019-04-05T15:33:52.658Z,80.43
2019-04-05T15:36:21.488Z,81.57
2019-04-05T15:38:50.354Z,84.77
2019-04-05T15:41:19.553Z,83.53
2019-04-05T15:43:48.404Z,84.97
2019-04-05T15:46:17.820Z,84.90
2019-04-05T15:48:46.658Z,88.50
2019-04-05T15:51:16.121Z,84.20
2019-04-05T15:53:45.082Z,88.53
2019-04-05T15:56:13.935Z,79.97
2019-04-05T15:58:43.301Z,78.67
2019-04-05T16:01:12.135Z,81.30
2019-04-05T16:03:41.626Z,84.93
2019-04-05T16:06:10.438Z,82.37
2019-04-05T16:08:39.237Z,86.50
2019-04-05T16:11:08.397Z,77.63
2019-04-05T16:13:37.537Z,87.43
2019-04-05T16:16:06.283Z,85.17
2019-04-05T16:18:35.008Z,77.70
2019-04-05T16:21:03.841Z,72.27
2019-04-05T16:23:32.581Z,84.17
2019-04-05T16:26:01.412Z,88.97
2019-04-05T16:28:30.169Z,75.47
2019-04-05T16:30:59.144Z,76.10
2019-04-05T16:33:27.969Z,77.73
2019-04-05T16:35:56.824Z,86.07
2019-04-05T16:38:25.732Z,76.67
2019-04-05T16:40:54.761Z,74.50
2019-04-05T16:43:24.169Z,81.17
2019-04-05T16:45:53.267Z,79.83
2019-04-05T16:48:22.704Z,79.80
2019-04-05T16:50:51.524Z,81.13
2019-04-05T16:53:20.277Z,83.27
2019-04-05T16:55:49.073Z,83.83
2019-04-05T16:58:22.246Z,84.87
2019-04-05T17:00:55.791Z,86.47
2019-04-05T17:03:25.378Z,85.80
2019-04-05T17:05:54.607Z,83.03
2019-04-05T17:08:23.425Z,78.80
2019-04-05T17:10:52.537Z,85.23
2019-04-05T17:13:21.500Z,85.07
2019-04-05T17:15:50.311Z,79.63
2019-04-05T17:18:21.226Z,84.23
2019-04-05T17:20:50.027Z,81.37
2019-04-05T17:23:20.930Z,87.60
2019-04-05T17:25:49.694Z,87.80
2019-04-05T17:28:19.277Z,78.83
2019-04-05T17:30:48.148Z,87.77
2019-04-05T17:33:17.646Z,90.07
2019-04-05T17:35:46.478Z,89.93
2019-04-05T17:38:15.337Z,84.40
2019-04-05T17:40:44.317Z,98.63
2019-04-05T17:43:13.086Z,98.00
2019-04-05T17:45:42.184Z,88.47
2019-04-05T17:48:11.235Z,92.23
2019-04-05T17:50:40.189Z,88.17
2019-04-05T17:53:13.406Z,91.43
2019-04-05T17:55:40.458Z,87.27
2019-04-05T17:58:09.878Z,95.70
2019-04-05T18:00:39.005Z,83.63
2019-04-05T18:03:08.502Z,86.67
2019-04-05T18:05:37.741Z,92.40
2019-04-05T18:08:06.893Z,89.87
2019-04-05T18:10:36.801Z,97.23
2019-04-05T18:13:05.865Z,125.47
2019-04-05T18:15:35.152Z,93.27
2019-04-05T18:18:05.635Z,83.33
2019-04-05T18:20:35.394Z,90.33
2019-04-05T18:23:04.426Z,91.33
2019-04-05T18:25:33.610Z,98.60
2019-04-05T18:28:02.601Z,97.77
2019-04-05T18:30:32.367Z,96.40
2019-04-05T18:33:01.586Z,97.60
2019-04-05T18:35:31.728Z,99.53
2019-04-05T18:38:02.342Z,96.93
2019-04-05T18:40:40.027Z,99.13
2019-04-05T18:43:05.784Z,108.20
2019-04-05T18:45:36.833Z,104.00
2019-04-05T18:48:05.774Z,93.00
2019-04-05T18:50:35.562Z,97.07
2019-04-05T18:53:04.591Z,102.30
2019-04-05T18:55:33.751Z,103.00
2019-04-05T18:58:05.940Z,99.60
2019-04-05T19:00:35.179Z,105.97
2019-04-05T19:03:04.408Z,108.63
2019-04-05T19:05:33.765Z,105.57
2019-04-05T19:08:03.658Z,111.20
2019-04-05T19:10:37.296Z,107.70
2019-04-05T19:13:07.041Z,112.37
2019-04-05T19:15:35.956Z,106.37
2019-04-05T19:18:05.176Z,95.60
2019-04-05T19:20:36.830Z,109.10
2019-04-05T19:23:05.025Z,112.40
2019-04-05T19:25:34.177Z,106.47
2019-04-05T19:28:03.407Z,100.77
2019-04-05T19:50:39.622Z,112.80
2019-04-05T19:53:08.756Z,80.90
2019-04-05T19:55:39.674Z,114.67
2019-04-05T19:58:08.835Z,102.53
2019-04-05T20:00:39.070Z,69.63
2019-04-05T20:03:08.714Z,120.30
2019-04-05T20:05:37.815Z,76.63
2019-04-05T20:08:07.255Z,120.53
2019-04-05T20:10:37.163Z,99.93
2019-04-05T20:13:06.502Z,121.47
2019-04-05T20:15:35.619Z,118.90
2019-04-05T20:18:05.491Z,116.73
2019-04-05T20:20:35.492Z,101.07
2019-04-05T20:23:04.733Z,108.07
2019-04-05T20:25:34.508Z,125.80
2019-04-05T20:28:03.729Z,125.03
2019-04-05T20:30:33.358Z,101.57
2019-04-05T20:33:02.378Z,124.87
2019-04-05T20:35:31.512Z,120.93
2019-04-05T20:38:00.391Z,121.37
2019-04-05T20:40:29.494Z,116.93
2019-04-05T20:42:59.936Z,109.53
2019-04-05T20:45:31.157Z,125.00
2019-04-05T20:48:01.932Z,118.73
2019-04-05T20:50:34.257Z,108.93
2019-04-05T20:53:03.068Z,98.67
2019-04-05T20:55:31.907Z,115.00
2019-04-05T20:58:01.377Z,108.13
2019-04-05T21:00:30.254Z,102.53
2019-04-05T21:03:00.650Z,118.03
2019-04-05T21:05:29.520Z,63.07
2019-04-05T21:07:58.390Z,116.97
2019-04-05T21:10:27.671Z,124.43
2019-04-05T21:12:56.790Z,124.50
2019-04-05T21:15:26.103Z,121.60
2019-04-05T21:17:55.601Z,126.07
2019-04-05T21:20:24.391Z,116.40
2019-04-05T21:22:53.087Z,94.17
2019-04-05T21:25:21.892Z,118.43
2019-04-05T21:27:51.023Z,122.43
2019-04-05T21:30:19.840Z,111.67
2019-04-05T21:32:48.943Z,106.57
2019-04-05T21:35:17.733Z,115.77
2019-04-05T21:37:46.435Z,134.97
2019-04-05T21:40:15.211Z,125.63
2019-04-05T21:42:43.996Z,139.87
2019-04-05T21:45:12.726Z,124.03
2019-04-05T21:47:41.883Z,133.30
2019-04-05T21:50:10.868Z,127.37
2019-04-05T21:52:39.618Z,126.37
2019-04-05T21:55:08.343Z,136.80
2019-04-05T21:57:37.222Z,138.50
2019-04-05T22:00:07.734Z,131.63
2019-04-05T22:02:36.518Z,147.93
2019-04-05T22:05:05.929Z,142.30
2019-04-05T22:07:34.828Z,123.97
2019-04-05T22:10:03.634Z,147.07
2019-04-05T22:12:32.499Z,147.07
2019-04-05T22:15:01.223Z,148.07
2019-04-05T22:17:30.087Z,147.93
2019-04-05T22:19:58.905Z,156.17
2019-04-05T22:22:27.604Z,154.90
2019-04-05T22:24:59.454Z,152.80
2019-04-05T22:27:26.805Z,156.80
2019-04-05T22:29:55.505Z,154.97
2019-04-05T22:32:24.810Z,136.23
2019-04-05T22:34:54.022Z,165.83
2019-04-05T22:37:22.720Z,170.73
2019-04-05T22:39:51.407Z,176.47
2019-04-05T22:42:21.953Z,182.10
2019-04-05T22:44:50.735Z,174.37
2019-04-05T22:47:19.434Z,181.03
2019-04-05T22:49:48.100Z,162.17
2019-04-05T22:52:16.748Z,177.10
2019-04-05T22:54:47.361Z,151.10
2019-04-05T22:57:15.985Z,174.10
2019-04-05T22:59:44.744Z,167.77
2019-04-05T23:02:14.020Z,190.60
2019-04-05T23:04:43.240Z,159.87
2019-04-05T23:07:11.936Z,157.20
2019-04-05T23:09:40.724Z,159.90
2019-04-05T23:12:09.367Z,167.93
2019-04-05T23:14:38.082Z,162.17
2019-04-05T23:17:07.284Z,198.47
2019-04-05T23:19:35.978Z,144.13
2019-04-05T23:22:05.144Z,161.70
2019-04-05T23:24:33.975Z,163.30
2019-04-05T23:27:03.195Z,173.57
2019-04-05T23:29:32.042Z,149.90
2019-04-05T23:32:00.915Z,205.77
2019-04-05T23:34:29.659Z,189.60
2019-04-05T23:36:58.448Z,171.03
2019-04-05T23:39:27.788Z,163.47
2019-04-05T23:41:56.485Z,160.63
2019-04-05T23:44:25.371Z,152.60
2019-04-05T23:46:54.179Z,178.60
2019-04-05T23:49:23.014Z,177.83
2019-04-05T23:51:51.777Z,177.83
2019-04-05T23:54:21.582Z,152.30
2019-04-05T23:56:50.551Z,167.17
2019-04-05T23:59:19.301Z,154.13
